sensor_id;sensor_type;location;lat;lon;timestamp;temperature;humidity
41668;DHT22;27356;50.920;5.350;2023-03-11T00:00:42;0.60;99.90
41668;DHT22;27356;50.920;5.350;2023-03-11T00:03:11;0.70;99.90
41668;DHT22;27356;50.920;5.350;2023-03-11T00:05:39;0.70;99.90
41668;DHT22;27356;50.920;5.350;2023-03-11T00:08:06;0.60;99.90
41668;DHT22;27356;50.920;5.350;2023-03-11T00:10:35;0.60;99.90
41668;DHT22;27356;50.920;5.350;2023-03-11T00:13:04;0.60;99.90
41668;DHT22;27356;50.920;5.350;2023-03-11T00:15:30;0.60;99.90
41668;DHT22;27356;50.920;5.350;2023-03-11T00:17:56;0.70;99.90
41668;DHT22;27356;50.920;5.350;2023-03-11T00:20:26;0.60;99.90
41668;DHT22;27356;50.920;5.350;2023-03-11T00:22:52;0.60;99.90
41668;DHT22;27356;50.920;5.350;2023-03-11T00:25:19;0.60;99.90
41668;DHT22;27356;50.920;5.350;2023-03-11T00:27:45;0.60;99.90
41668;DHT22;27356;50.920;5.350;2023-03-11T00:30:13;0.60;99.90
41668;DHT22;27356;50.920;5.350;2023-03-11T00:32:39;0.60;99.90
41668;DHT22;27356;50.920;5.350;2023-03-11T00:35:05;0.50;99.90
41668;DHT22;27356;50.920;5.350;2023-03-11T00:37:32;0.40;99.90
41668;DHT22;27356;50.920;5.350;2023-03-11T00:39:58;0.30;99.90
41668;DHT22;27356;50.920;5.350;2023-03-11T00:42:24;0.40;99.90
41668;DHT22;27356;50.920;5.350;2023-03-11T00:44:50;0.40;99.90
41668;DHT22;27356;50.920;5.350;2023-03-11T00:47:16;0.60;99.90
41668;DHT22;27356;50.920;5.350;2023-03-11T00:49:42;0.60;99.90
41668;DHT22;27356;50.920;5.350;2023-03-11T00:52:08;0.70;99.90
41668;DHT22;27356;50.920;5.350;2023-03-11T00:54:33;0.70;99.90
41668;DHT22;27356;50.920;5.350;2023-03-11T00:56:59;0.70;99.90
41668;DHT22;27356;50.920;5.350;2023-03-11T00:59:25;0.80;99.90
41668;DHT22;27356;50.920;5.350;2023-03-11T01:01:51;0.90;99.90
41668;DHT22;27356;50.920;5.350;2023-03-11T01:04:16;0.90;99.90
41668;DHT22;27356;50.920;5.350;2023-03-11T01:06:42;1.00;99.90
41668;DHT22;27356;50.920;5.350;2023-03-11T01:09:08;1.10;99.90
41668;DHT22;27356;50.920;5.350;2023-03-11T01:11:34;1.10;99.90
41668;DHT22;27356;50.920;5.350;2023-03-11T01:13:59;1.00;99.90
41668;DHT22;27356;50.920;5.350;2023-03-11T01:16:33;1.00;99.90
41668;DHT22;27356;50.920;5.350;2023-03-11T01:19:02;1.00;99.90
41668;DHT22;27356;50.920;5.350;2023-03-11T01:21:28;1.00;99.90
41668;DHT22;27356;50.920;5.350;2023-03-11T01:23:54;1.10;99.90
41668;DHT22;27356;50.920;5.350;2023-03-11T01:26:19;1.00;99.90
41668;DHT22;27356;50.920;5.350;2023-03-11T01:28:45;1.10;99.90
41668;DHT22;27356;50.920;5.350;2023-03-11T01:31:11;1.20;99.90
41668;DHT22;27356;50.920;5.350;2023-03-11T01:33:38;1.10;99.90
41668;DHT22;27356;50.920;5.350;2023-03-11T01:36:04;1.20;99.90
41668;DHT22;27356;50.920;5.350;2023-03-11T01:38:31;1.40;99.90
41668;DHT22;27356;50.920;5.350;2023-03-11T01:40:59;1.40;99.90
41668;DHT22;27356;50.920;5.350;2023-03-11T01:43:54;1.40;99.90
41668;DHT22;27356;50.920;5.350;2023-03-11T01:46:30;1.30;99.90
41668;DHT22;27356;50.920;5.350;2023-03-11T01:49:15;1.40;99.90
41668;DHT22;27356;50.920;5.350;2023-03-11T01:51:43;1.20;99.90
41668;DHT22;27356;50.920;5.350;2023-03-11T01:54:14;1.20;99.90
41668;DHT22;27356;50.920;5.350;2023-03-11T01:56:41;1.10;99.90
41668;DHT22;27356;50.920;5.350;2023-03-11T01:59:10;1.30;99.90
41668;DHT22;27356;50.920;5.350;2023-03-11T02:01:42;1.20;99.90
41668;DHT22;27356;50.920;5.350;2023-03-11T02:04:10;1.20;99.90
41668;DHT22;27356;50.920;5.350;2023-03-11T02:06:37;1.20;99.90
41668;DHT22;27356;50.920;5.350;2023-03-11T02:09:02;1.10;99.90
41668;DHT22;27356;50.920;5.350;2023-03-11T02:11:29;1.10;99.90
41668;DHT22;27356;50.920;5.350;2023-03-11T02:13:58;1.00;99.90
41668;DHT22;27356;50.920;5.350;2023-03-11T02:16:24;1.00;99.90
41668;DHT22;27356;50.920;5.350;2023-03-11T02:18:50;1.10;99.90
41668;DHT22;27356;50.920;5.350;2023-03-11T02:21:28;1.00;99.90
41668;DHT22;27356;50.920;5.350;2023-03-11T02:26:57;1.00;99.90
41668;DHT22;27356;50.920;5.350;2023-03-11T02:29:26;0.80;99.90
41668;DHT22;27356;50.920;5.350;2023-03-11T02:31:52;0.70;99.90
41668;DHT22;27356;50.920;5.350;2023-03-11T02:34:27;0.70;99.90
41668;DHT22;27356;50.920;5.350;2023-03-11T02:36:53;0.70;99.90
41668;DHT22;27356;50.920;5.350;2023-03-11T02:39:31;0.60;99.90
41668;DHT22;27356;50.920;5.350;2023-03-11T02:41:58;0.60;99.90
41668;DHT22;27356;50.920;5.350;2023-03-11T02:44:25;0.60;99.90
41668;DHT22;27356;50.920;5.350;2023-03-11T02:46:52;0.70;99.90
41668;DHT22;27356;50.920;5.350;2023-03-11T02:49:19;0.80;99.90
41668;DHT22;27356;50.920;5.350;2023-03-11T02:51:45;0.70;99.90
41668;DHT22;27356;50.920;5.350;2023-03-11T02:54:11;0.70;99.90
41668;DHT22;27356;50.920;5.350;2023-03-11T02:56:37;0.60;99.90
41668;DHT22;27356;50.920;5.350;2023-03-11T02:59:02;0.60;99.90
41668;DHT22;27356;50.920;5.350;2023-03-11T03:01:28;0.60;99.90
41668;DHT22;27356;50.920;5.350;2023-03-11T03:03:54;0.50;99.90
41668;DHT22;27356;50.920;5.350;2023-03-11T03:06:20;0.50;99.90
41668;DHT22;27356;50.920;5.350;2023-03-11T03:08:45;0.50;99.90
41668;DHT22;27356;50.920;5.350;2023-03-11T03:11:11;0.60;99.90
41668;DHT22;27356;50.920;5.350;2023-03-11T03:13:37;0.60;99.90
41668;DHT22;27356;50.920;5.350;2023-03-11T03:16:03;0.60;99.90
41668;DHT22;27356;50.920;5.350;2023-03-11T03:18:29;0.70;99.90
41668;DHT22;27356;50.920;5.350;2023-03-11T03:20:55;0.70;99.90
41668;DHT22;27356;50.920;5.350;2023-03-11T03:23:21;0.60;99.90
41668;DHT22;27356;50.920;5.350;2023-03-11T03:25:47;0.60;99.90
41668;DHT22;27356;50.920;5.350;2023-03-11T03:28:15;0.60;99.90
41668;DHT22;27356;50.920;5.350;2023-03-11T03:30:41;0.70;99.90
41668;DHT22;27356;50.920;5.350;2023-03-11T03:33:07;0.60;99.90
41668;DHT22;27356;50.920;5.350;2023-03-11T03:35:33;0.70;99.90
41668;DHT22;27356;50.920;5.350;2023-03-11T03:37:59;0.80;99.90
41668;DHT22;27356;50.920;5.350;2023-03-11T03:40:25;0.90;99.90
41668;DHT22;27356;50.920;5.350;2023-03-11T03:42:51;1.00;99.90
41668;DHT22;27356;50.920;5.350;2023-03-11T03:45:20;1.00;99.90
41668;DHT22;27356;50.920;5.350;2023-03-11T03:47:45;0.90;99.90
41668;DHT22;27356;50.920;5.350;2023-03-11T03:50:12;0.90;99.90
41668;DHT22;27356;50.920;5.350;2023-03-11T03:52:38;1.00;99.90
41668;DHT22;27356;50.920;5.350;2023-03-11T03:55:05;0.80;99.90
41668;DHT22;27356;50.920;5.350;2023-03-11T03:57:31;0.80;99.90
41668;DHT22;27356;50.920;5.350;2023-03-11T03:59:57;0.80;99.90
41668;DHT22;27356;50.920;5.350;2023-03-11T04:02:23;0.50;99.90
41668;DHT22;27356;50.920;5.350;2023-03-11T04:04:49;0.60;99.90
41668;DHT22;27356;50.920;5.350;2023-03-11T04:07:15;0.60;99.90
41668;DHT22;27356;50.920;5.350;2023-03-11T04:09:41;0.50;99.90
41668;DHT22;27356;50.920;5.350;2023-03-11T04:12:12;0.60;99.90
41668;DHT22;27356;50.920;5.350;2023-03-11T04:14:38;0.50;99.90
41668;DHT22;27356;50.920;5.350;2023-03-11T04:17:03;0.40;99.90
41668;DHT22;27356;50.920;5.350;2023-03-11T04:19:29;0.40;99.90
41668;DHT22;27356;50.920;5.350;2023-03-11T04:21:55;0.40;99.90
41668;DHT22;27356;50.920;5.350;2023-03-11T04:24:21;0.40;99.90
41668;DHT22;27356;50.920;5.350;2023-03-11T04:26:46;0.40;99.90
41668;DHT22;27356;50.920;5.350;2023-03-11T04:29:12;0.40;99.90
41668;DHT22;27356;50.920;5.350;2023-03-11T04:31:38;0.40;99.90
41668;DHT22;27356;50.920;5.350;2023-03-11T04:34:03;0.40;99.90
41668;DHT22;27356;50.920;5.350;2023-03-11T04:36:29;0.50;99.90
41668;DHT22;27356;50.920;5.350;2023-03-11T04:38:55;0.40;99.90
41668;DHT22;27356;50.920;5.350;2023-03-11T04:41:22;0.40;99.90
41668;DHT22;27356;50.920;5.350;2023-03-11T04:43:48;0.40;99.90
41668;DHT22;27356;50.920;5.350;2023-03-11T04:46:14;0.30;99.90
41668;DHT22;27356;50.920;5.350;2023-03-11T04:48:39;0.20;99.90
41668;DHT22;27356;50.920;5.350;2023-03-11T04:51:05;0.30;99.90
41668;DHT22;27356;50.920;5.350;2023-03-11T04:53:32;0.30;99.90
41668;DHT22;27356;50.920;5.350;2023-03-11T04:55:57;0.30;99.90
41668;DHT22;27356;50.920;5.350;2023-03-11T04:58:23;0.10;99.90
41668;DHT22;27356;50.920;5.350;2023-03-11T05:00:50;0.10;99.90
41668;DHT22;27356;50.920;5.350;2023-03-11T05:03:16;0.00;99.90
41668;DHT22;27356;50.920;5.350;2023-03-11T05:05:41;0.00;99.90
41668;DHT22;27356;50.920;5.350;2023-03-11T05:08:07;0.10;99.90
41668;DHT22;27356;50.920;5.350;2023-03-11T05:10:33;0.10;99.90
41668;DHT22;27356;50.920;5.350;2023-03-11T05:12:59;0.10;99.90
41668;DHT22;27356;50.920;5.350;2023-03-11T05:15:24;0.10;99.90
41668;DHT22;27356;50.920;5.350;2023-03-11T05:17:50;-0.10;99.90
41668;DHT22;27356;50.920;5.350;2023-03-11T05:20:16;0.00;99.90
41668;DHT22;27356;50.920;5.350;2023-03-11T05:22:42;-0.10;99.90
41668;DHT22;27356;50.920;5.350;2023-03-11T05:25:08;0.00;99.90
41668;DHT22;27356;50.920;5.350;2023-03-11T05:27:33;-0.10;99.90
41668;DHT22;27356;50.920;5.350;2023-03-11T05:29:59;0.00;99.90
41668;DHT22;27356;50.920;5.350;2023-03-11T05:32:25;0.00;99.90
41668;DHT22;27356;50.920;5.350;2023-03-11T05:34:50;0.00;99.90
41668;DHT22;27356;50.920;5.350;2023-03-11T05:37:17;0.10;99.90
41668;DHT22;27356;50.920;5.350;2023-03-11T05:39:43;-0.10;99.90
41668;DHT22;27356;50.920;5.350;2023-03-11T05:42:09;-0.20;99.90
41668;DHT22;27356;50.920;5.350;2023-03-11T05:44:34;-0.20;99.90
41668;DHT22;27356;50.920;5.350;2023-03-11T05:47:00;-0.20;99.90
41668;DHT22;27356;50.920;5.350;2023-03-11T05:49:26;0.00;99.90
41668;DHT22;27356;50.920;5.350;2023-03-11T05:51:52;-0.10;99.90
41668;DHT22;27356;50.920;5.350;2023-03-11T05:54:20;0.00;99.90
41668;DHT22;27356;50.920;5.350;2023-03-11T05:56:46;0.10;99.90
41668;DHT22;27356;50.920;5.350;2023-03-11T05:59:14;0.00;99.90
41668;DHT22;27356;50.920;5.350;2023-03-11T06:01:40;-0.10;99.90
41668;DHT22;27356;50.920;5.350;2023-03-11T06:04:07;-0.20;99.90
41668;DHT22;27356;50.920;5.350;2023-03-11T06:06:33;-0.20;99.90
41668;DHT22;27356;50.920;5.350;2023-03-11T06:08:58;-0.20;99.90
41668;DHT22;27356;50.920;5.350;2023-03-11T06:11:24;-0.20;99.90
41668;DHT22;27356;50.920;5.350;2023-03-11T06:13:52;-0.10;99.90
41668;DHT22;27356;50.920;5.350;2023-03-11T06:16:19;0.00;99.90
41668;DHT22;27356;50.920;5.350;2023-03-11T06:18:45;0.00;99.90
41668;DHT22;27356;50.920;5.350;2023-03-11T06:21:15;-0.10;99.90
41668;DHT22;27356;50.920;5.350;2023-03-11T06:23:41;0.10;99.90
41668;DHT22;27356;50.920;5.350;2023-03-11T06:26:08;0.20;99.90
41668;DHT22;27356;50.920;5.350;2023-03-11T06:28:37;0.20;99.90
41668;DHT22;27356;50.920;5.350;2023-03-11T06:31:10;0.30;99.90
41668;DHT22;27356;50.920;5.350;2023-03-11T06:33:36;0.30;99.90
41668;DHT22;27356;50.920;5.350;2023-03-11T06:36:03;0.50;99.90
41668;DHT22;27356;50.920;5.350;2023-03-11T06:38:29;0.50;99.90
41668;DHT22;27356;50.920;5.350;2023-03-11T06:41:03;0.50;99.90
41668;DHT22;27356;50.920;5.350;2023-03-11T06:43:29;0.60;99.90
41668;DHT22;27356;50.920;5.350;2023-03-11T06:45:56;0.70;99.90
41668;DHT22;27356;50.920;5.350;2023-03-11T06:48:22;0.80;99.90
41668;DHT22;27356;50.920;5.350;2023-03-11T06:50:59;0.80;99.90
41668;DHT22;27356;50.920;5.350;2023-03-11T06:53:26;0.80;99.90
41668;DHT22;27356;50.920;5.350;2023-03-11T06:56:10;0.80;99.90
41668;DHT22;27356;50.920;5.350;2023-03-11T06:58:38;1.10;99.90
41668;DHT22;27356;50.920;5.350;2023-03-11T07:01:20;1.50;99.90
41668;DHT22;27356;50.920;5.350;2023-03-11T07:03:46;1.70;99.90
41668;DHT22;27356;50.920;5.350;2023-03-11T07:06:14;2.00;99.90
41668;DHT22;27356;50.920;5.350;2023-03-11T07:08:41;2.50;99.90
41668;DHT22;27356;50.920;5.350;2023-03-11T07:11:09;3.00;99.90
41668;DHT22;27356;50.920;5.350;2023-03-11T07:13:35;3.30;99.90
41668;DHT22;27356;50.920;5.350;2023-03-11T07:16:03;3.50;99.90
41668;DHT22;27356;50.920;5.350;2023-03-11T07:18:29;3.90;99.90
41668;DHT22;27356;50.920;5.350;2023-03-11T07:20:55;4.40;99.90
41668;DHT22;27356;50.920;5.350;2023-03-11T07:23:21;5.10;99.90
41668;DHT22;27356;50.920;5.350;2023-03-11T07:25:47;5.90;99.90
41668;DHT22;27356;50.920;5.350;2023-03-11T07:28:13;6.70;99.90
41668;DHT22;27356;50.920;5.350;2023-03-11T07:30:39;7.20;99.90
41668;DHT22;27356;50.920;5.350;2023-03-11T07:33:05;7.70;99.90
41668;DHT22;27356;50.920;5.350;2023-03-11T07:35:31;8.30;99.90
41668;DHT22;27356;50.920;5.350;2023-03-11T07:37:59;8.60;99.90
41668;DHT22;27356;50.920;5.350;2023-03-11T07:40:25;8.80;99.90
41668;DHT22;27356;50.920;5.350;2023-03-11T07:42:51;9.40;99.90
41668;DHT22;27356;50.920;5.350;2023-03-11T07:45:16;9.40;99.90
41668;DHT22;27356;50.920;5.350;2023-03-11T07:47:42;9.70;99.90
41668;DHT22;27356;50.920;5.350;2023-03-11T07:50:08;10.00;99.90
41668;DHT22;27356;50.920;5.350;2023-03-11T07:52:34;10.30;99.90
41668;DHT22;27356;50.920;5.350;2023-03-11T07:55:00;10.70;99.00
41668;DHT22;27356;50.920;5.350;2023-03-11T07:57:25;11.10;98.00
41668;DHT22;27356;50.920;5.350;2023-03-11T07:59:51;11.40;97.00
41668;DHT22;27356;50.920;5.350;2023-03-11T08:02:17;11.50;96.20
41668;DHT22;27356;50.920;5.350;2023-03-11T08:04:42;11.70;95.50
41668;DHT22;27356;50.920;5.350;2023-03-11T08:07:08;11.70;95.80
41668;DHT22;27356;50.920;5.350;2023-03-11T08:09:34;12.00;95.40
41668;DHT22;27356;50.920;5.350;2023-03-11T08:12:00;12.30;95.00
41668;DHT22;27356;50.920;5.350;2023-03-11T08:14:26;12.70;94.50
41668;DHT22;27356;50.920;5.350;2023-03-11T08:16:52;13.10;94.00
41668;DHT22;27356;50.920;5.350;2023-03-11T08:19:18;13.30;93.10
41668;DHT22;27356;50.920;5.350;2023-03-11T08:21:44;13.40;93.10
41668;DHT22;27356;50.920;5.350;2023-03-11T08:24:12;13.60;92.90
41668;DHT22;27356;50.920;5.350;2023-03-11T08:26:38;13.60;92.50
41668;DHT22;27356;50.920;5.350;2023-03-11T08:29:04;13.80;92.30
41668;DHT22;27356;50.920;5.350;2023-03-11T08:31:31;13.60;92.00
41668;DHT22;27356;50.920;5.350;2023-03-11T08:34:04;13.70;92.70
41668;DHT22;27356;50.920;5.350;2023-03-11T08:36:31;14.10;91.40
41668;DHT22;27356;50.920;5.350;2023-03-11T08:38:56;13.00;92.40
41668;DHT22;27356;50.920;5.350;2023-03-11T08:41:23;12.70;92.20
41668;DHT22;27356;50.920;5.350;2023-03-11T08:43:49;12.90;93.70
41668;DHT22;27356;50.920;5.350;2023-03-11T08:46:28;13.30;92.90
41668;DHT22;27356;50.920;5.350;2023-03-11T08:48:55;13.80;93.20
41668;DHT22;27356;50.920;5.350;2023-03-11T08:51:22;13.80;91.40
41668;DHT22;27356;50.920;5.350;2023-03-11T08:53:48;14.30;89.80
41668;DHT22;27356;50.920;5.350;2023-03-11T08:56:14;13.60;91.30
41668;DHT22;27356;50.920;5.350;2023-03-11T08:58:39;14.20;91.10
41668;DHT22;27356;50.920;5.350;2023-03-11T09:01:06;14.10;91.30
41668;DHT22;27356;50.920;5.350;2023-03-11T09:03:34;14.30;90.60
41668;DHT22;27356;50.920;5.350;2023-03-11T09:06:02;14.90;89.20
41668;DHT22;27356;50.920;5.350;2023-03-11T09:08:29;14.20;88.40
41668;DHT22;27356;50.920;5.350;2023-03-11T09:10:54;13.90;88.90
41668;DHT22;27356;50.920;5.350;2023-03-11T09:13:20;13.80;90.50
41668;DHT22;27356;50.920;5.350;2023-03-11T09:15:50;14.40;89.90
41668;DHT22;27356;50.920;5.350;2023-03-11T09:18:17;14.70;90.50
41668;DHT22;27356;50.920;5.350;2023-03-11T09:20:43;14.80;90.30
41668;DHT22;27356;50.920;5.350;2023-03-11T09:23:11;14.80;87.50
41668;DHT22;27356;50.920;5.350;2023-03-11T09:25:38;14.10;80.20
41668;DHT22;27356;50.920;5.350;2023-03-11T09:28:04;14.00;84.10
41668;DHT22;27356;50.920;5.350;2023-03-11T09:30:31;13.70;85.30
41668;DHT22;27356;50.920;5.350;2023-03-11T09:32:57;14.60;84.80
41668;DHT22;27356;50.920;5.350;2023-03-11T09:35:23;14.30;82.30
41668;DHT22;27356;50.920;5.350;2023-03-11T09:37:49;13.80;80.50
41668;DHT22;27356;50.920;5.350;2023-03-11T09:40:20;11.80;77.80
41668;DHT22;27356;50.920;5.350;2023-03-11T09:43:05;10.10;86.20
41668;DHT22;27356;50.920;5.350;2023-03-11T09:45:39;9.20;90.70
41668;DHT22;27356;50.920;5.350;2023-03-11T09:50:50;8.90;90.90
41668;DHT22;27356;50.920;5.350;2023-03-11T09:53:21;8.60;89.50
41668;DHT22;27356;50.920;5.350;2023-03-11T09:56:02;8.10;91.50
41668;DHT22;27356;50.920;5.350;2023-03-11T09:58:48;7.70;91.50
41668;DHT22;27356;50.920;5.350;2023-03-11T10:01:34;7.50;91.50
41668;DHT22;27356;50.920;5.350;2023-03-11T10:06:35;7.40;95.10
41668;DHT22;27356;50.920;5.350;2023-03-11T10:20:05;8.30;87.90
41668;DHT22;27356;50.920;5.350;2023-03-11T10:25:29;7.70;90.90
41668;DHT22;27356;50.920;5.350;2023-03-11T10:28:02;7.80;90.90
41668;DHT22;27356;50.920;5.350;2023-03-11T10:30:36;8.40;93.30
41668;DHT22;27356;50.920;5.350;2023-03-11T10:33:13;9.00;90.70
41668;DHT22;27356;50.920;5.350;2023-03-11T10:35:45;9.40;91.80
41668;DHT22;27356;50.920;5.350;2023-03-11T10:38:17;9.70;91.60
41668;DHT22;27356;50.920;5.350;2023-03-11T10:40:46;9.70;89.10
41668;DHT22;27356;50.920;5.350;2023-03-11T10:43:20;10.00;89.60
41668;DHT22;27356;50.920;5.350;2023-03-11T10:45:47;10.10;88.10
41668;DHT22;27356;50.920;5.350;2023-03-11T10:48:17;9.70;87.40
41668;DHT22;27356;50.920;5.350;2023-03-11T10:51:10;9.50;87.20
41668;DHT22;27356;50.920;5.350;2023-03-11T10:53:52;9.60;87.10
41668;DHT22;27356;50.920;5.350;2023-03-11T10:56:40;8.90;90.00
41668;DHT22;27356;50.920;5.350;2023-03-11T11:01:58;9.40;87.60
41668;DHT22;27356;50.920;5.350;2023-03-11T11:04:28;9.50;89.20
41668;DHT22;27356;50.920;5.350;2023-03-11T11:06:54;9.30;87.40
41668;DHT22;27356;50.920;5.350;2023-03-11T11:09:22;9.10;83.40
41668;DHT22;27356;50.920;5.350;2023-03-11T11:14:47;8.90;84.30
41668;DHT22;27356;50.920;5.350;2023-03-11T11:17:27;9.10;89.20
41668;DHT22;27356;50.920;5.350;2023-03-11T11:19:54;9.20;91.10
41668;DHT22;27356;50.920;5.350;2023-03-11T11:22:23;9.50;90.70
41668;DHT22;27356;50.920;5.350;2023-03-11T11:24:52;9.80;90.00
41668;DHT22;27356;50.920;5.350;2023-03-11T11:27:21;9.90;88.10
41668;DHT22;27356;50.920;5.350;2023-03-11T11:32:34;10.30;85.50
41668;DHT22;27356;50.920;5.350;2023-03-11T11:35:06;10.50;88.70
41668;DHT22;27356;50.920;5.350;2023-03-11T11:37:34;10.40;89.50
41668;DHT22;27356;50.920;5.350;2023-03-11T11:40:05;10.60;90.80
41668;DHT22;27356;50.920;5.350;2023-03-11T11:42:43;10.80;86.00
41668;DHT22;27356;50.920;5.350;2023-03-11T11:45:36;10.90;84.90
41668;DHT22;27356;50.920;5.350;2023-03-11T11:48:19;10.10;82.80
41668;DHT22;27356;50.920;5.350;2023-03-11T11:50:55;9.90;82.10
41668;DHT22;27356;50.920;5.350;2023-03-11T11:54:10;10.20;81.30
41668;DHT22;27356;50.920;5.350;2023-03-11T11:56:23;10.40;84.70
41668;DHT22;27356;50.920;5.350;2023-03-11T11:58:49;10.50;83.80
41668;DHT22;27356;50.920;5.350;2023-03-11T12:01:21;10.50;84.90
41668;DHT22;27356;50.920;5.350;2023-03-11T12:14:42;9.60;82.20
41668;DHT22;27356;50.920;5.350;2023-03-11T12:17:13;9.30;83.80
41668;DHT22;27356;50.920;5.350;2023-03-11T12:27:43;8.70;84.20
41668;DHT22;27356;50.920;5.350;2023-03-11T12:30:15;8.80;83.50
41668;DHT22;27356;50.920;5.350;2023-03-11T12:32:47;8.70;82.70
41668;DHT22;27356;50.920;5.350;2023-03-11T12:35:31;8.70;84.90
41668;DHT22;27356;50.920;5.350;2023-03-11T12:46:07;8.70;89.60
41668;DHT22;27356;50.920;5.350;2023-03-11T12:53:55;9.20;86.70
41668;DHT22;27356;50.920;5.350;2023-03-11T13:01:50;8.90;87.80
41668;DHT22;27356;50.920;5.350;2023-03-11T13:09:42;8.90;83.80
41668;DHT22;27356;50.920;5.350;2023-03-11T13:18:13;8.30;82.30
41668;DHT22;27356;50.920;5.350;2023-03-11T13:42:36;8.10;89.50
41668;DHT22;27356;50.920;5.350;2023-03-11T13:45:01;8.30;90.10
41668;DHT22;27356;50.920;5.350;2023-03-11T13:47:47;8.40;89.10
41668;DHT22;27356;50.920;5.350;2023-03-11T13:50:39;8.40;85.90
41668;DHT22;27356;50.920;5.350;2023-03-11T13:53:12;8.30;87.80
41668;DHT22;27356;50.920;5.350;2023-03-11T13:55:43;8.30;87.40
41668;DHT22;27356;50.920;5.350;2023-03-11T13:58:22;8.40;89.00
41668;DHT22;27356;50.920;5.350;2023-03-11T14:00:59;8.30;86.30
41668;DHT22;27356;50.920;5.350;2023-03-11T14:03:28;8.10;84.50
41668;DHT22;27356;50.920;5.350;2023-03-11T14:06:04;8.20;87.10
41668;DHT22;27356;50.920;5.350;2023-03-11T14:08:33;7.90;85.60
41668;DHT22;27356;50.920;5.350;2023-03-11T14:13:38;7.70;88.30
41668;DHT22;27356;50.920;5.350;2023-03-11T14:16:30;8.00;90.00
41668;DHT22;27356;50.920;5.350;2023-03-11T14:19:16;8.10;88.40
41668;DHT22;27356;50.920;5.350;2023-03-11T14:21:50;7.90;89.00
41668;DHT22;27356;50.920;5.350;2023-03-11T14:24:27;8.10;85.80
41668;DHT22;27356;50.920;5.350;2023-03-11T14:26:55;7.90;88.90
41668;DHT22;27356;50.920;5.350;2023-03-11T14:29:35;8.00;84.90
41668;DHT22;27356;50.920;5.350;2023-03-11T14:32:28;7.90;85.00
41668;DHT22;27356;50.920;5.350;2023-03-11T14:34:54;7.70;87.40
41668;DHT22;27356;50.920;5.350;2023-03-11T14:37:35;7.80;86.10
41668;DHT22;27356;50.920;5.350;2023-03-11T14:40:02;7.70;89.20
41668;DHT22;27356;50.920;5.350;2023-03-11T14:42:33;7.80;88.80
41668;DHT22;27356;50.920;5.350;2023-03-11T14:45:17;7.70;86.90
41668;DHT22;27356;50.920;5.350;2023-03-11T14:48:16;7.60;90.30
41668;DHT22;27356;50.920;5.350;2023-03-11T14:50:45;7.40;87.10
41668;DHT22;27356;50.920;5.350;2023-03-11T14:53:24;7.20;86.10
41668;DHT22;27356;50.920;5.350;2023-03-11T14:55:58;7.10;88.00
41668;DHT22;27356;50.920;5.350;2023-03-11T14:58:31;7.20;86.10
41668;DHT22;27356;50.920;5.350;2023-03-11T15:04:12;7.20;89.20
41668;DHT22;27356;50.920;5.350;2023-03-11T15:06:43;7.30;88.20
41668;DHT22;27356;50.920;5.350;2023-03-11T15:09:14;7.40;85.60
41668;DHT22;27356;50.920;5.350;2023-03-11T15:14:31;7.50;90.40
41668;DHT22;27356;50.920;5.350;2023-03-11T15:17:17;7.80;90.30
41668;DHT22;27356;50.920;5.350;2023-03-11T15:19:45;7.70;90.30
41668;DHT22;27356;50.920;5.350;2023-03-11T15:22:28;8.00;90.60
41668;DHT22;27356;50.920;5.350;2023-03-11T15:24:57;8.10;90.20
41668;DHT22;27356;50.920;5.350;2023-03-11T15:27:27;8.30;88.60
41668;DHT22;27356;50.920;5.350;2023-03-11T15:29:54;8.20;86.20
41668;DHT22;27356;50.920;5.350;2023-03-11T15:32:40;8.20;89.00
41668;DHT22;27356;50.920;5.350;2023-03-11T15:37:32;8.50;87.00
41668;DHT22;27356;50.920;5.350;2023-03-11T15:40:17;8.40;85.70
41668;DHT22;27356;50.920;5.350;2023-03-11T15:42:43;8.50;87.60
41668;DHT22;27356;50.920;5.350;2023-03-11T15:45:17;8.50;88.30
41668;DHT22;27356;50.920;5.350;2023-03-11T15:47:44;8.30;88.60
41668;DHT22;27356;50.920;5.350;2023-03-11T15:50:19;8.30;86.60
41668;DHT22;27356;50.920;5.350;2023-03-11T15:52:45;8.20;88.10
41668;DHT22;27356;50.920;5.350;2023-03-11T15:55:13;8.20;89.70
41668;DHT22;27356;50.920;5.350;2023-03-11T15:57:39;8.30;89.50
41668;DHT22;27356;50.920;5.350;2023-03-11T16:00:19;8.20;90.20
41668;DHT22;27356;50.920;5.350;2023-03-11T16:02:49;8.10;90.00
41668;DHT22;27356;50.920;5.350;2023-03-11T16:05:20;8.20;89.30
41668;DHT22;27356;50.920;5.350;2023-03-11T16:07:47;8.10;86.50
41668;DHT22;27356;50.920;5.350;2023-03-11T16:10:15;8.20;87.10
41668;DHT22;27356;50.920;5.350;2023-03-11T16:12:42;8.00;86.60
41668;DHT22;27356;50.920;5.350;2023-03-11T16:15:21;7.80;85.60
41668;DHT22;27356;50.920;5.350;2023-03-11T16:17:50;7.70;87.50
41668;DHT22;27356;50.920;5.350;2023-03-11T16:20:17;7.70;89.60
41668;DHT22;27356;50.920;5.350;2023-03-11T16:22:44;7.80;89.90
41668;DHT22;27356;50.920;5.350;2023-03-11T16:25:22;7.80;88.60
41668;DHT22;27356;50.920;5.350;2023-03-11T16:27:53;7.70;85.80
41668;DHT22;27356;50.920;5.350;2023-03-11T16:30:19;7.60;88.60
41668;DHT22;27356;50.920;5.350;2023-03-11T16:32:45;7.70;88.60
41668;DHT22;27356;50.920;5.350;2023-03-11T16:35:11;7.60;87.40
41668;DHT22;27356;50.920;5.350;2023-03-11T16:37:37;7.40;88.90
41668;DHT22;27356;50.920;5.350;2023-03-11T16:40:04;7.30;86.80
41668;DHT22;27356;50.920;5.350;2023-03-11T16:42:32;7.00;87.40
41668;DHT22;27356;50.920;5.350;2023-03-11T16:44:58;6.80;88.80
41668;DHT22;27356;50.920;5.350;2023-03-11T16:47:23;6.70;87.90
41668;DHT22;27356;50.920;5.350;2023-03-11T16:49:49;6.80;87.00
41668;DHT22;27356;50.920;5.350;2023-03-11T16:52:19;6.80;86.90
41668;DHT22;27356;50.920;5.350;2023-03-11T16:54:46;6.70;87.40
41668;DHT22;27356;50.920;5.350;2023-03-11T16:57:12;6.70;87.00
41668;DHT22;27356;50.920;5.350;2023-03-11T16:59:37;6.70;87.20
41668;DHT22;27356;50.920;5.350;2023-03-11T17:02:03;6.70;87.10
41668;DHT22;27356;50.920;5.350;2023-03-11T17:04:29;6.60;87.20
41668;DHT22;27356;50.920;5.350;2023-03-11T17:06:55;6.60;86.30
41668;DHT22;27356;50.920;5.350;2023-03-11T17:09:20;6.60;86.60
41668;DHT22;27356;50.920;5.350;2023-03-11T17:11:48;6.60;85.90
41668;DHT22;27356;50.920;5.350;2023-03-11T17:14:15;6.50;86.20
41668;DHT22;27356;50.920;5.350;2023-03-11T17:16:41;6.50;87.80
41668;DHT22;27356;50.920;5.350;2023-03-11T17:19:07;6.40;87.50
41668;DHT22;27356;50.920;5.350;2023-03-11T17:21:33;6.40;87.20
41668;DHT22;27356;50.920;5.350;2023-03-11T17:23:58;6.30;89.40
41668;DHT22;27356;50.920;5.350;2023-03-11T17:26:24;6.40;89.60
41668;DHT22;27356;50.920;5.350;2023-03-11T17:28:55;6.30;90.10
41668;DHT22;27356;50.920;5.350;2023-03-11T17:31:21;6.20;90.20
41668;DHT22;27356;50.920;5.350;2023-03-11T17:33:47;6.20;90.30
41668;DHT22;27356;50.920;5.350;2023-03-11T17:36:15;6.20;90.30
41668;DHT22;27356;50.920;5.350;2023-03-11T17:38:43;6.10;90.20
41668;DHT22;27356;50.920;5.350;2023-03-11T17:41:13;6.10;90.80
41668;DHT22;27356;50.920;5.350;2023-03-11T17:43:40;6.10;90.70
41668;DHT22;27356;50.920;5.350;2023-03-11T17:46:11;6.10;90.90